createdAt,value
2017-07-25T00:00:24.686Z,1.47
2017-07-25T00:02:54.327Z,1.40
2017-07-25T00:05:26.271Z,0.90
2017-07-25T00:07:55.801Z,1.60
2017-07-25T00:10:25.220Z,1.57
2017-07-25T00:12:54.338Z,4.20
2017-07-25T00:15:50.819Z,1.10
2017-07-25T00:18:22.943Z,2.20
2017-07-25T00:20:51.990Z,1.73
2017-07-25T00:23:23.544Z,0.80
2017-07-25T00:25:52.793Z,1.47
2017-07-25T00:28:23.325Z,3.50
2017-07-25T00:30:54.220Z,2.33
2017-07-25T00:33:25.122Z,3.10
2017-07-25T00:35:54.979Z,0.90
2017-07-25T00:38:24.691Z,3.53
2017-07-25T00:40:53.912Z,2.03
2017-07-25T00:43:23.693Z,1.10
2017-07-25T00:45:53.146Z,9.80
2017-07-25T00:48:23.626Z,5.07
2017-07-25T00:50:53.268Z,2.37
2017-07-25T00:53:23.755Z,1.10
2017-07-25T00:55:53.094Z,4.93
2017-07-25T00:58:25.829Z,1.77
2017-07-25T01:00:57.263Z,1.40
2017-07-25T01:03:26.747Z,3.80
2017-07-25T01:05:56.379Z,1.00
2017-07-25T01:08:26.992Z,2.47
2017-07-25T01:10:56.284Z,1.03
2017-07-25T01:13:25.325Z,1.70
2017-07-25T01:15:55.754Z,0.80
2017-07-25T01:18:26.281Z,4.70
2017-07-25T01:20:55.616Z,2.10
2017-07-25T01:23:26.077Z,0.90
2017-07-25T01:25:55.510Z,0.70
2017-07-25T01:28:27.001Z,1.27
2017-07-25T01:30:56.975Z,1.03
2017-07-25T01:33:26.740Z,2.30
2017-07-25T01:36:30.593Z,0.70
2017-07-25T01:39:00.041Z,2.60
2017-07-25T01:41:29.688Z,2.40
2017-07-25T01:43:59.765Z,1.60
2017-07-25T01:46:29.924Z,0.80
2017-07-25T01:48:59.843Z,1.53
2017-07-25T01:51:29.381Z,0.70
2017-07-25T01:53:59.500Z,0.70
2017-07-25T01:56:29.013Z,1.63
2017-07-25T01:58:58.904Z,0.70
2017-07-25T02:01:29.244Z,2.77
2017-07-25T02:03:58.835Z,0.70
2017-07-25T02:06:29.197Z,0.70
2017-07-25T02:08:58.257Z,0.70
2017-07-25T02:11:27.751Z,3.07
2017-07-25T02:13:58.109Z,2.30
2017-07-25T02:16:27.340Z,2.70
2017-07-25T02:18:58.398Z,1.93
2017-07-25T02:21:28.928Z,1.63
2017-07-25T02:23:58.647Z,0.90
2017-07-25T02:26:28.636Z,1.77
2017-07-25T02:28:58.903Z,0.80
2017-07-25T02:31:28.673Z,0.70
2017-07-25T02:33:57.801Z,2.03
2017-07-25T02:36:27.954Z,1.47
2017-07-25T02:38:57.039Z,3.53
2017-07-25T02:41:27.461Z,2.57
2017-07-25T02:43:56.879Z,0.93
2017-07-25T02:46:26.341Z,2.90
2017-07-25T02:48:55.649Z,0.70
2017-07-25T02:51:25.677Z,2.30
2017-07-25T02:53:55.853Z,2.40
2017-07-25T02:56:25.530Z,0.80
2017-07-25T02:58:55.219Z,1.00
2017-07-25T03:01:26.065Z,1.30
2017-07-25T03:03:55.725Z,3.90
2017-07-25T03:06:25.290Z,2.50
2017-07-25T03:08:54.943Z,0.90
2017-07-25T03:11:24.351Z,2.50
2017-07-25T03:13:53.888Z,1.00
2017-07-25T03:16:25.577Z,2.90
2017-07-25T03:18:55.750Z,1.43
2017-07-25T03:21:26.470Z,0.80
2017-07-25T03:24:00.931Z,1.20
2017-07-25T03:26:30.091Z,0.80
2017-07-25T03:28:59.230Z,0.93
2017-07-25T03:31:29.047Z,1.07
2017-07-25T03:33:58.230Z,1.10
2017-07-25T03:36:27.866Z,1.10
2017-07-25T03:38:57.307Z,2.10
2017-07-25T03:41:27.000Z,1.17
2017-07-25T03:43:56.087Z,2.03
2017-07-25T03:46:26.213Z,1.00
2017-07-25T03:48:55.763Z,1.40
2017-07-25T03:51:27.064Z,0.80
2017-07-25T03:53:56.178Z,1.00
2017-07-25T03:56:25.351Z,1.40
2017-07-25T03:58:54.563Z,0.80
2017-07-25T04:01:26.505Z,2.60
2017-07-25T04:03:56.041Z,1.50
2017-07-25T04:06:25.556Z,1.00
2017-07-25T04:08:54.909Z,1.23
2017-07-25T04:11:25.706Z,3.30
2017-07-25T04:13:56.105Z,1.10
2017-07-25T04:16:26.140Z,2.20
2017-07-25T04:18:55.803Z,1.00
2017-07-25T04:21:26.102Z,2.73
2017-07-25T04:23:55.612Z,1.10
2017-07-25T04:26:27.609Z,1.03
2017-07-25T04:28:57.396Z,1.00
2017-07-25T04:31:28.263Z,5.13
2017-07-25T04:33:57.464Z,0.87
2017-07-25T04:36:27.571Z,0.80
2017-07-25T04:38:56.879Z,1.17
2017-07-25T04:41:27.084Z,0.90
2017-07-25T04:43:57.348Z,2.50
2017-07-25T04:46:27.416Z,1.53
2017-07-25T04:48:56.785Z,2.00
2017-07-25T04:51:26.183Z,1.00
2017-07-25T04:53:55.302Z,1.00
2017-07-25T04:56:26.018Z,1.60
2017-07-25T04:58:55.224Z,1.90
2017-07-25T05:01:25.436Z,1.20
2017-07-25T05:03:55.266Z,1.07
2017-07-25T05:06:26.856Z,0.70
2017-07-25T05:08:56.492Z,0.80
2017-07-25T05:11:26.072Z,1.00
2017-07-25T05:13:58.050Z,60.10
2017-07-25T05:16:31.974Z,198.63
2017-07-25T05:19:07.497Z,422.70
2017-07-25T05:25:00.549Z,286.77
2017-07-25T05:27:31.687Z,239.90
2017-07-25T05:30:01.387Z,252.40
2017-07-25T05:32:30.469Z,174.80
2017-07-25T05:35:00.236Z,165.60
2017-07-25T05:37:29.730Z,160.50
2017-07-25T05:39:59.011Z,133.97
2017-07-25T05:42:28.815Z,506.10
2017-07-25T05:44:58.103Z,549.83
2017-07-25T05:47:28.892Z,426.77
2017-07-25T05:49:58.172Z,329.30
2017-07-25T05:52:27.878Z,255.03
2017-07-25T05:54:57.360Z,234.17
2017-07-25T05:57:27.242Z,222.63
2017-07-25T05:59:57.385Z,187.50
2017-07-25T06:02:29.463Z,196.80
2017-07-25T06:04:59.789Z,166.20
2017-07-25T06:07:30.617Z,155.60
2017-07-25T06:10:00.385Z,132.33
2017-07-25T06:12:31.359Z,128.63
2017-07-25T06:15:01.414Z,107.73
2017-07-25T06:17:31.238Z,102.63
2017-07-25T06:20:01.131Z,103.87
2017-07-25T06:22:30.310Z,88.30
2017-07-25T06:25:00.896Z,86.23
2017-07-25T06:27:31.097Z,86.13
2017-07-25T06:30:00.347Z,72.97
2017-07-25T06:32:30.097Z,62.23
2017-07-25T06:35:00.662Z,61.43
2017-07-25T06:37:30.547Z,54.57
2017-07-25T06:40:01.283Z,49.60
2017-07-25T06:42:30.866Z,49.00
2017-07-25T06:45:00.136Z,40.50
2017-07-25T06:47:30.517Z,38.77
2017-07-25T06:50:01.608Z,39.60
2017-07-25T06:52:32.533Z,32.60
2017-07-25T06:55:02.915Z,33.07
2017-07-25T06:57:32.238Z,33.53
2017-07-25T07:00:01.618Z,28.57
2017-07-25T07:02:31.288Z,21.43
2017-07-25T07:05:00.493Z,21.40
2017-07-25T07:07:29.922Z,21.53
2017-07-25T07:09:59.642Z,16.90
2017-07-25T07:12:29.455Z,15.30
2017-07-25T07:14:59.705Z,14.30
2017-07-25T07:17:29.173Z,11.73
2017-07-25T07:19:58.692Z,11.10
2017-07-25T07:22:28.149Z,10.60
2017-07-25T07:24:57.313Z,13.43
2017-07-25T07:27:26.487Z,10.37
2017-07-25T07:29:56.280Z,10.03
2017-07-25T07:32:27.250Z,10.27
2017-07-25T07:34:57.429Z,7.70
2017-07-25T07:37:27.604Z,7.67
2017-07-25T07:39:57.820Z,6.83
2017-07-25T07:42:27.763Z,7.30
2017-07-25T07:44:56.825Z,6.07
2017-07-25T07:47:28.339Z,6.73
2017-07-25T07:49:58.224Z,6.63
2017-07-25T07:52:27.943Z,5.73
2017-07-25T07:54:57.399Z,4.93
2017-07-25T07:57:27.080Z,4.73
2017-07-25T07:59:56.140Z,3.97
2017-07-25T08:02:26.232Z,5.43
2017-07-25T08:04:55.240Z,3.27
2017-07-25T08:07:25.075Z,4.20
2017-07-25T08:09:54.239Z,3.23
2017-07-25T08:12:26.267Z,3.03
2017-07-25T08:14:55.461Z,2.47
2017-07-25T08:17:25.559Z,2.50
2017-07-25T08:19:54.788Z,2.27
2017-07-25T08:22:26.376Z,2.63
2017-07-25T08:24:57.633Z,2.40
2017-07-25T08:27:27.055Z,2.20
2017-07-25T08:29:56.230Z,1.80
2017-07-25T08:32:27.191Z,2.13
2017-07-25T08:34:56.403Z,1.90
2017-07-25T08:37:27.953Z,1.67
2017-07-25T08:39:57.096Z,1.77
2017-07-25T08:42:28.363Z,1.50
2017-07-25T08:44:58.112Z,2.10
2017-07-25T08:47:27.134Z,2.37
2017-07-25T08:49:56.246Z,1.40
2017-07-25T08:52:26.356Z,1.47
2017-07-25T08:54:56.080Z,1.20
2017-07-25T08:57:27.270Z,1.30
2017-07-25T08:59:57.295Z,1.30
2017-07-25T09:02:27.022Z,1.47
2017-07-25T09:04:56.039Z,1.10
2017-07-25T09:07:27.953Z,1.20
2017-07-25T09:09:57.196Z,1.40
2017-07-25T09:12:28.342Z,1.87
2017-07-25T09:14:57.454Z,1.63
2017-07-25T09:17:27.361Z,1.13
2017-07-25T09:19:56.400Z,1.20
2017-07-25T09:22:27.230Z,1.17
2017-07-25T09:24:56.398Z,1.07
2017-07-25T09:27:26.855Z,0.90
2017-07-25T09:29:55.924Z,1.27
2017-07-25T09:32:25.542Z,1.17
2017-07-25T09:34:54.611Z,0.90
2017-07-25T09:37:26.732Z,0.97
2017-07-25T09:39:55.819Z,0.90
2017-07-25T09:42:26.471Z,0.97
2017-07-25T09:44:55.465Z,0.80
2017-07-25T09:47:25.535Z,1.10
2017-07-25T09:49:54.635Z,0.80
2017-07-25T09:52:25.412Z,0.97
2017-07-25T09:54:54.928Z,0.80
2017-07-25T09:57:24.051Z,0.77
2017-07-25T09:59:53.748Z,0.80
2017-07-25T10:02:24.724Z,2.40
2017-07-25T10:04:53.895Z,0.83
2017-07-25T10:07:24.762Z,0.90
2017-07-25T10:09:54.661Z,0.80
2017-07-25T10:12:25.622Z,0.80
2017-07-25T10:14:54.791Z,1.23
2017-07-25T10:17:26.370Z,0.80
2017-07-25T10:19:55.500Z,1.00
2017-07-25T10:22:24.862Z,0.80
2017-07-25T10:24:54.339Z,0.80
2017-07-25T10:27:26.062Z,0.80
2017-07-25T10:29:55.346Z,0.90
2017-07-25T10:32:26.021Z,0.83
2017-07-25T10:34:55.609Z,0.70
2017-07-25T10:37:27.787Z,0.73
2017-07-25T10:39:57.492Z,0.80
2017-07-25T10:42:29.549Z,0.70
2017-07-25T10:44:58.513Z,0.80
2017-07-25T10:47:28.750Z,1.30
2017-07-25T10:49:57.693Z,0.93
2017-07-25T10:52:27.129Z,1.10
2017-07-25T10:54:57.194Z,1.07
2017-07-25T10:57:44.325Z,1.10
2017-07-25T11:00:14.005Z,0.80
2017-07-25T11:02:48.055Z,0.70
2017-07-25T11:05:18.855Z,0.70
2017-07-25T11:07:48.835Z,0.70
2017-07-25T11:10:19.271Z,1.07
2017-07-25T11:12:49.705Z,0.80
2017-07-25T11:15:20.749Z,0.80
2017-07-25T11:17:50.667Z,0.70
2017-07-25T11:20:21.384Z,0.90
2017-07-25T11:22:50.833Z,0.70
2017-07-25T11:25:22.984Z,0.70
2017-07-25T11:27:52.063Z,0.80
2017-07-25T11:30:22.831Z,0.70
2017-07-25T11:32:52.489Z,0.70
2017-07-25T11:35:23.111Z,2.40
2017-07-25T11:37:52.275Z,0.70
2017-07-25T11:40:23.313Z,0.90
2017-07-25T11:42:52.832Z,0.80
2017-07-25T11:45:24.436Z,0.80
2017-07-25T11:47:55.153Z,0.80
2017-07-25T11:50:24.832Z,1.57
2017-07-25T11:52:55.655Z,0.73
2017-07-25T11:55:25.454Z,0.70
2017-07-25T11:57:58.659Z,1.03
2017-07-25T12:00:27.931Z,0.80
2017-07-25T12:02:57.572Z,1.03
2017-07-25T12:05:28.868Z,0.80
2017-07-25T12:07:58.204Z,0.70
2017-07-25T12:10:27.359Z,1.07
2017-07-25T12:12:56.542Z,0.70
2017-07-25T12:15:27.908Z,0.80
2017-07-25T12:17:57.318Z,0.70
2017-07-25T12:20:26.391Z,0.70
2017-07-25T12:22:55.975Z,0.70
2017-07-25T12:25:26.496Z,1.00
2017-07-25T12:27:55.569Z,0.70
2017-07-25T12:30:24.839Z,1.30
2017-07-25T12:32:53.970Z,0.70
2017-07-25T12:35:25.020Z,0.80
2017-07-25T12:37:54.455Z,0.90
2017-07-25T12:40:24.013Z,0.70
2017-07-25T12:42:53.528Z,0.70
2017-07-25T12:45:23.459Z,0.70
2017-07-25T12:47:52.540Z,0.80
2017-07-25T12:50:24.747Z,1.00
2017-07-25T12:52:54.151Z,0.70
2017-07-25T12:55:23.184Z,1.70
2017-07-25T12:57:52.924Z,0.90
2017-07-25T13:00:27.632Z,0.70
2017-07-25T13:03:00.966Z,0.80
2017-07-25T13:05:30.178Z,0.70
2017-07-25T13:07:59.997Z,1.23
2017-07-25T13:10:30.302Z,0.70
2017-07-25T13:12:59.208Z,0.70
2017-07-25T13:15:29.322Z,0.63
2017-07-25T13:17:59.613Z,0.70
2017-07-25T13:20:30.066Z,0.70
2017-07-25T13:22:59.623Z,0.70
2017-07-25T13:25:28.865Z,0.80
2017-07-25T13:27:57.969Z,0.70
2017-07-25T13:30:27.865Z,1.17
2017-07-25T13:32:57.126Z,0.90
2017-07-25T13:35:26.268Z,0.70
2017-07-25T13:37:55.740Z,0.87
2017-07-25T13:40:26.467Z,0.70
2017-07-25T13:42:55.685Z,3.47
2017-07-25T13:45:24.856Z,0.80
2017-07-25T13:47:53.944Z,0.70
2017-07-25T13:50:24.335Z,0.80
2017-07-25T13:52:53.761Z,0.73
2017-07-25T13:55:23.052Z,0.90
2017-07-25T13:57:52.117Z,0.70
2017-07-25T14:00:25.645Z,0.70
2017-07-25T14:02:54.672Z,0.80
2017-07-25T14:05:25.362Z,0.90
2017-07-25T14:07:54.952Z,0.70
2017-07-25T14:10:25.786Z,0.70
2017-07-25T14:12:55.657Z,0.87
2017-07-25T14:15:25.577Z,1.07
2017-07-25T14:17:54.740Z,1.00
2017-07-25T14:20:26.914Z,0.70
2017-07-25T14:22:56.419Z,0.70
2017-07-25T14:27:59.177Z,1.73
2017-07-25T14:30:28.993Z,0.70
2017-07-25T14:32:57.970Z,0.90
2017-07-25T14:35:27.588Z,0.80
2017-07-25T14:37:56.769Z,0.80
2017-07-25T14:40:27.034Z,0.80
2017-07-25T14:42:55.972Z,1.07
2017-07-25T14:45:25.595Z,730.70
2017-07-25T14:47:54.803Z,485.27
2017-07-25T14:50:24.745Z,332.43
2017-07-25T14:52:54.148Z,192.80
2017-07-25T14:55:23.307Z,162.43
2017-07-25T14:57:52.586Z,133.10
2017-07-25T15:00:24.077Z,109.93
2017-07-25T15:02:53.214Z,83.67
2017-07-25T15:05:24.558Z,82.57
2017-07-25T15:07:54.008Z,469.57
2017-07-25T15:10:26.947Z,450.43
2017-07-25T15:12:56.031Z,449.50
2017-07-25T15:15:28.022Z,321.53
2017-07-25T15:17:57.433Z,237.97
2017-07-25T15:20:27.198Z,182.00
2017-07-25T15:22:56.257Z,161.77
2017-07-25T15:25:26.262Z,150.70
2017-07-25T15:27:55.412Z,120.33
2017-07-25T15:30:24.607Z,581.60
2017-07-25T15:32:54.055Z,542.57
2017-07-25T15:35:24.352Z,468.33
2017-07-25T15:37:53.480Z,376.03
2017-07-25T15:40:25.119Z,270.73
2017-07-25T15:42:54.197Z,251.40
2017-07-25T15:45:23.470Z,225.97
2017-07-25T15:47:52.855Z,468.93
2017-07-25T15:50:22.991Z,631.53
2017-07-25T15:52:52.142Z,447.60
2017-07-25T15:55:29.693Z,404.40
2017-07-25T15:57:59.208Z,318.00
2017-07-25T16:00:28.404Z,250.23
2017-07-25T16:02:57.825Z,275.00
2017-07-25T16:05:27.412Z,259.63
2017-07-25T16:07:56.658Z,204.70
2017-07-25T16:10:26.830Z,224.60
2017-07-25T16:12:55.775Z,537.03
2017-07-25T16:15:24.668Z,636.63
2017-07-25T16:17:54.395Z,580.13
2017-07-25T16:20:23.591Z,511.73
2017-07-25T16:22:52.742Z,457.27
2017-07-25T16:25:23.761Z,379.37
2017-07-25T16:27:54.143Z,313.77
2017-07-25T16:30:23.597Z,319.80
2017-07-25T16:32:52.991Z,289.07
2017-07-25T16:35:24.420Z,238.87
2017-07-25T16:37:54.486Z,228.30
2017-07-25T16:40:23.862Z,209.47
2017-07-25T16:42:52.941Z,203.50
2017-07-25T16:45:23.620Z,272.23
2017-07-25T16:47:53.114Z,693.27
2017-07-25T16:50:24.157Z,538.60
2017-07-25T16:52:53.734Z,440.73
2017-07-25T16:55:23.712Z,332.60
2017-07-25T16:57:53.303Z,431.23
2017-07-25T17:00:24.453Z,282.70
2017-07-25T17:02:53.933Z,252.47
2017-07-25T17:05:23.236Z,228.23
2017-07-25T17:07:52.217Z,199.07
2017-07-25T17:10:24.816Z,205.30
2017-07-25T17:12:54.082Z,166.10
2017-07-25T17:15:24.598Z,163.63
2017-07-25T17:17:54.041Z,165.10
2017-07-25T17:20:23.359Z,141.80
2017-07-25T17:22:53.244Z,139.43
2017-07-25T17:25:24.649Z,144.67
2017-07-25T17:27:53.985Z,177.33
2017-07-25T17:30:23.747Z,537.57
2017-07-25T17:32:53.256Z,513.10
2017-07-25T17:35:26.110Z,417.10
2017-07-25T17:37:55.449Z,423.60
2017-07-25T17:40:25.022Z,317.77
2017-07-25T17:42:54.732Z,255.73
2017-07-25T17:45:25.021Z,236.20
2017-07-25T17:47:55.246Z,205.60
2017-07-25T17:50:25.418Z,185.00
2017-07-25T17:52:54.609Z,192.37
2017-07-25T17:55:25.595Z,170.63
2017-07-25T17:57:55.253Z,182.73
2017-07-25T18:00:24.629Z,143.17
2017-07-25T18:02:54.284Z,137.27
2017-07-25T18:05:23.563Z,109.67
2017-07-25T18:07:52.822Z,124.27
2017-07-25T18:10:25.891Z,111.37
2017-07-25T18:12:55.295Z,123.37
2017-07-25T18:15:25.624Z,345.07
2017-07-25T18:17:55.001Z,122.23
2017-07-25T18:20:25.342Z,96.53
2017-07-25T18:22:54.604Z,325.07
2017-07-25T18:25:24.932Z,267.00
2017-07-25T18:27:54.390Z,165.77
2017-07-25T18:30:27.789Z,105.87
2017-07-25T18:32:57.198Z,83.47
2017-07-25T18:35:26.510Z,67.47
2017-07-25T18:37:56.095Z,68.57
2017-07-25T18:40:30.100Z,50.70
2017-07-25T18:43:00.884Z,54.30
2017-07-25T18:45:30.568Z,45.77
2017-07-25T18:47:59.833Z,50.37
2017-07-25T18:50:29.049Z,499.63
2017-07-25T18:52:59.628Z,528.00
2017-07-25T18:55:28.843Z,437.97
2017-07-25T18:57:58.417Z,309.87
2017-07-25T19:00:27.707Z,218.27
2017-07-25T19:02:56.882Z,193.00
2017-07-25T19:05:27.651Z,164.80
2017-07-25T19:07:57.688Z,127.90
2017-07-25T19:10:27.458Z,132.43
2017-07-25T19:12:56.731Z,96.53
2017-07-25T19:15:27.506Z,100.40
2017-07-25T19:17:57.744Z,111.63
2017-07-25T19:20:27.037Z,97.13
2017-07-25T19:22:56.555Z,668.97
2017-07-25T19:25:29.305Z,573.37
2017-07-25T19:27:58.536Z,540.50
2017-07-25T19:30:28.231Z,530.07
2017-07-25T19:32:58.246Z,368.57
2017-07-25T19:35:28.957Z,311.10
2017-07-25T19:37:58.461Z,234.80
2017-07-25T19:40:27.722Z,206.50
2017-07-25T19:42:57.092Z,207.17
2017-07-25T19:45:27.339Z,182.90
2017-07-25T19:47:56.578Z,170.03
2017-07-25T19:50:26.804Z,151.20
2017-07-25T19:52:55.951Z,140.43
2017-07-25T19:55:26.085Z,135.87
2017-07-25T19:57:55.473Z,131.43
2017-07-25T20:00:27.704Z,288.23
2017-07-25T20:02:57.694Z,613.23
2017-07-25T20:05:27.397Z,556.73
2017-07-25T20:07:56.639Z,149.40
2017-07-25T20:10:25.951Z,109.27
2017-07-25T20:12:55.736Z,107.93
2017-07-25T20:15:25.111Z,85.70
2017-07-25T20:17:54.181Z,86.83
2017-07-25T20:20:24.045Z,74.93
2017-07-25T20:22:53.241Z,74.47
2017-07-25T20:25:25.923Z,67.27
2017-07-25T20:27:55.098Z,65.73
2017-07-25T20:30:24.845Z,53.30
2017-07-25T20:32:54.967Z,55.63
2017-07-25T20:35:24.981Z,49.60
2017-07-25T20:37:54.063Z,48.90
2017-07-25T20:40:24.342Z,41.47
2017-07-25T20:42:53.521Z,36.30
2017-07-25T20:45:24.037Z,36.27
2017-07-25T20:47:53.213Z,31.93
2017-07-25T20:50:24.166Z,33.13
2017-07-25T20:52:53.307Z,35.83
2017-07-25T20:55:24.719Z,26.30
2017-07-25T20:57:53.945Z,28.17
2017-07-25T21:00:23.745Z,25.63
2017-07-25T21:02:53.035Z,21.30
2017-07-25T21:05:25.480Z,20.17
2017-07-25T21:07:54.702Z,23.07
2017-07-25T21:10:26.255Z,17.93
2017-07-25T21:12:55.452Z,18.73
2017-07-25T21:17:59.107Z,18.67
2017-07-25T21:20:33.450Z,16.60
2017-07-25T21:23:02.914Z,12.77
2017-07-25T21:25:32.713Z,16.30
2017-07-25T21:28:02.271Z,10.00
2017-07-25T21:30:31.506Z,9.63
2017-07-25T21:33:00.701Z,9.07
2017-07-25T21:35:30.437Z,9.30
2017-07-25T21:37:59.804Z,8.53
2017-07-25T21:40:29.991Z,7.83
2017-07-25T21:42:59.958Z,8.93
2017-07-25T21:45:32.007Z,9.40
2017-07-25T21:48:03.682Z,7.40
2017-07-25T21:50:35.086Z,8.80
2017-07-25T21:53:05.200Z,8.50
2017-07-25T21:55:35.379Z,5.73
2017-07-25T21:58:05.112Z,5.47
2017-07-25T22:00:34.227Z,6.13
2017-07-25T22:05:09.879Z,5.40
2017-07-25T22:07:39.885Z,3.90
2017-07-25T22:10:10.309Z,4.60
2017-07-25T22:12:40.002Z,4.90
2017-07-25T22:15:09.934Z,5.63
2017-07-25T22:17:39.829Z,5.20
2017-07-25T22:20:09.127Z,4.03
2017-07-25T22:22:38.413Z,3.60
2017-07-25T22:25:08.043Z,3.43
2017-07-25T22:27:38.251Z,3.97
2017-07-25T22:30:07.603Z,4.20
2017-07-25T22:32:36.814Z,5.23
2017-07-25T22:35:06.108Z,3.10
2017-07-25T22:37:35.266Z,3.43
2017-07-25T22:40:05.601Z,3.07
2017-07-25T22:42:34.831Z,2.43
2017-07-25T22:45:04.973Z,4.27
2017-07-25T22:47:34.183Z,3.30
2017-07-25T22:50:03.355Z,2.73
2017-07-25T22:52:33.027Z,2.87
2017-07-25T22:55:02.329Z,2.53
2017-07-25T22:57:31.470Z,2.70
2017-07-25T23:00:01.771Z,4.87
2017-07-25T23:02:30.868Z,4.20
2017-07-25T23:04:59.974Z,1.97
2017-07-25T23:07:29.447Z,2.40
2017-07-25T23:09:58.544Z,2.63
2017-07-25T23:12:27.961Z,3.20
2017-07-25T23:14:58.071Z,2.10
2017-07-25T23:17:28.128Z,2.33
2017-07-25T23:19:57.734Z,2.20
2017-07-25T23:22:28.959Z,1.70
2017-07-25T23:24:58.940Z,1.67
2017-07-25T23:27:28.152Z,1.47
2017-07-25T23:29:57.580Z,1.47
2017-07-25T23:32:27.276Z,1.30
2017-07-25T23:34:56.414Z,1.37
2017-07-25T23:37:27.859Z,2.60
2017-07-25T23:39:57.537Z,1.33
2017-07-25T23:42:27.463Z,1.40
2017-07-25T23:44:56.573Z,1.53
2017-07-25T23:47:26.244Z,1.23
2017-07-25T23:49:56.441Z,1.30
2017-07-25T23:52:26.201Z,1.30
2017-07-25T23:54:55.937Z,1.00
2017-07-25T23:57:25.672Z,2.20
2017-07-25T23:59:55.239Z,1.10
